Terminal Aerodrome Forecast
Issued by NWS La Crosse, WI

Home | Current Version | Previous Version | Text Only | Print | Product List | Glossary On
Versions: 1 2 3 4 5 6 7 8 9 10 11 12 13 14 15 16 17 18 19 20 21 22 23 24 25 26
000
FTUS43 KARX 012330
TAFRST
TAF
KRST 012330Z 0200/0224 20008KT P6SM SCT100
     FM020500 21010KT P6SM VCTS SCT080CB BKN250
     FM021000 22013KT P6SM SCT250
     FM021500 25015G23KT P6SM SKC
     FM022000 29017G26KT P6SM SKC=

USA.gov is the U.S. government's official web portal to all federal, state and local government web resources and services.